Time;durP1;ratioP1;P1;durP2;ratioP2;P2;SDS_P1;SDS_P2;PMS_P1;PMS_P2;Temp;Humidity;BMP_temperature;BMP_pressure;BME280_temperature;BME280_humidity;BME280_pressure;Samples;Min_cycle;Max_cycle;Signal;HPM_P1;HPM_P2
2023/01/27 00:00:50;;;;;;;51.55;22.95;;;;;;;;;;6182325;23;20059;-82
2023/01/27 00:03:15;;;;;;;53.78;25.60;;;;;;;;;;6184795;23;20440;-82
2023/01/27 00:05:41;;;;;;;51.47;25.85;;;;;;;;;;6186454;23;20020;-82
2023/01/27 00:08:06;;;;;;;58.38;26.85;;;;;;;;;;6185898;23;19997;-81
2023/01/27 00:10:31;;;;;;;62.80;27.73;;;;;;;;;;6184049;23;20040;-82
2023/01/27 00:15:42;;;;;;;53.90;26.42;;;;;;;;;;6182556;23;20039;-82
2023/01/27 00:18:08;;;;;;;59.88;28.13;;;;;;;;;;6184334;23;20005;-82
2023/01/27 00:26:05;;;;;;;81.10;35.65;;;;;;;;;;6182490;23;20028;-81
2023/01/27 00:28:34;;;;;;;86.72;39.03;;;;;;;;;;6162102;23;20016;-82
2023/01/27 00:30:59;;;;;;;87.25;40.53;;;;;;;;;;6186139;23;20063;-81
2023/01/27 00:33:26;;;;;;;90.05;43.10;;;;;;;;;;6191552;23;20462;-81
2023/01/27 00:36:05;;;;;;;88.18;42.25;;;;;;;;;;6188620;23;20005;-81
2023/01/27 00:38:33;;;;;;;87.65;40.58;;;;;;;;;;6177342;23;20005;-80
2023/01/27 00:41:14;;;;;;;83.10;37.22;;;;;;;;;;6210465;23;20041;-83
2023/01/27 00:43:39;;;;;;;;;;;;;;;;;;6189410;23;20005;-82
2023/01/27 00:46:05;;;;;;;41.80;20.33;;;;;;;;;;6209204;23;19903;-82
2023/01/27 00:48:30;;;;;;;40.03;20.08;;;;;;;;;;6194398;23;20005;-80
2023/01/27 00:50:56;;;;;;;40.65;19.80;;;;;;;;;;6186524;23;20063;-80
2023/01/27 00:53:21;;;;;;;35.17;18.75;;;;;;;;;;6184167;23;20076;-81
2023/01/27 00:55:47;;;;;;;36.67;18.20;;;;;;;;;;6185557;23;20028;-81
2023/01/27 00:58:12;;;;;;;35.08;19.95;;;;;;;;;;6185660;23;20442;-81
2023/01/27 01:00:38;;;;;;;38.00;18.30;;;;;;;;;;6183909;23;20353;-80
2023/01/27 01:03:03;;;;;;;28.95;15.88;;;;;;;;;;6159376;23;20005;-81
2023/01/27 01:05:29;;;;;;;32.55;16.70;;;;;;;;;;6184151;23;20001;-81
2023/01/27 01:07:54;;;;;;;30.50;16.52;;;;;;;;;;6177683;23;20005;-80
2023/01/27 01:10:20;;;;;;;36.90;18.00;;;;;;;;;;6183791;23;20040;-80
2023/01/27 01:12:45;;;;;;;32.47;16.30;;;;;;;;;;6184086;23;20016;-81
2023/01/27 01:15:10;;;;;;;30.23;16.27;;;;;;;;;;6183136;23;19997;-80
2023/01/27 01:17:36;;;;;;;28.73;15.45;;;;;;;;;;6183900;23;20027;-80
2023/01/27 01:20:01;;;;;;;24.67;13.73;;;;;;;;;;6185171;23;20001;-80
2023/01/27 01:22:27;;;;;;;23.50;13.05;;;;;;;;;;6183826;23;20039;-80
2023/01/27 01:24:52;;;;;;;28.08;16.02;;;;;;;;;;6183540;23;20005;-80
2023/01/27 01:27:19;;;;;;;34.13;19.30;;;;;;;;;;6183569;23;20015;-80
2023/01/27 01:29:44;;;;;;;27.13;15.13;;;;;;;;;;6185630;23;20009;-79
2023/01/27 01:32:10;;;;;;;26.95;14.85;;;;;;;;;;6184044;23;20005;-81
2023/01/27 01:34:36;;;;;;;26.27;14.48;;;;;;;;;;6159381;23;20332;-80
2023/01/27 01:37:02;;;;;;;22.10;14.10;;;;;;;;;;6185909;23;20092;-80
2023/01/27 01:39:28;;;;;;;25.95;14.32;;;;;;;;;;6184623;23;20005;-80
2023/01/27 01:41:53;;;;;;;29.23;14.13;;;;;;;;;;6183660;23;20005;-80
2023/01/27 01:44:20;;;;;;;35.75;17.20;;;;;;;;;;6183458;23;20035;-80
2023/01/27 01:46:45;;;;;;;30.10;15.88;;;;;;;;;;6183693;23;20012;-80
2023/01/27 01:49:11;;;;;;;30.17;16.13;;;;;;;;;;6185350;23;20344;-79
2023/01/27 01:51:42;;;;;;;30.90;16.35;;;;;;;;;;6158859;23;20015;-80
2023/01/27 01:54:27;;;;;;;28.98;15.43;;;;;;;;;;6183617;23;20001;-80
2023/01/27 01:57:20;;;;;;;23.80;13.48;;;;;;;;;;6183983;23;20001;-80
2023/01/27 01:59:51;;;;;;;21.52;12.00;;;;;;;;;;6178626;23;20001;-79
2023/01/27 02:02:17;;;;;;;23.20;13.15;;;;;;;;;;6158622;23;20001;-79
2023/01/27 02:04:55;;;;;;;22.05;13.15;;;;;;;;;;6158620;23;20089;-79
2023/01/27 02:07:26;;;;;;;22.27;12.57;;;;;;;;;;6183563;23;20005;-79
2023/01/27 02:09:52;;;;;;;20.35;11.80;;;;;;;;;;6152840;23;20063;-79
2023/01/27 02:12:18;;;;;;;20.00;12.00;;;;;;;;;;6158422;23;20009;-79
2023/01/27 02:14:43;;;;;;;21.58;12.18;;;;;;;;;;6183537;23;20008;-79
2023/01/27 02:17:09;;;;;;;21.52;11.30;;;;;;;;;;6182185;23;20005;-79
2023/01/27 02:20:13;;;;;;;19.45;11.70;;;;;;;;;;6158672;23;20031;-79
2023/01/27 02:23:03;;;;;;;21.13;10.98;;;;;;;;;;6184513;23;20001;-79
2023/01/27 02:25:35;;;;;;;18.88;10.93;;;;;;;;;;6184654;23;20009;-79
2023/01/27 02:28:01;;;;;;;20.67;11.15;;;;;;;;;;6183235;23;19993;-79
2023/01/27 02:30:27;;;;;;;22.92;12.23;;;;;;;;;;6183042;23;20008;-81
2023/01/27 02:32:52;;;;;;;22.48;12.32;;;;;;;;;;6134067;23;20008;-80
2023/01/27 02:35:57;;;;;;;19.90;12.52;;;;;;;;;;6158367;23;20012;-79
2023/01/27 02:38:23;;;;;;;18.10;10.60;;;;;;;;;;6183068;23;20063;-80
2023/01/27 02:40:49;;;;;;;23.65;11.40;;;;;;;;;;6160842;23;20387;-80
2023/01/27 02:43:14;;;;;;;20.05;12.25;;;;;;;;;;6160676;23;20404;-79
2023/01/27 02:45:40;;;;;;;19.63;10.15;;;;;;;;;;6185738;23;20028;-80
2023/01/27 02:48:05;;;;;;;16.70;9.70;;;;;;;;;;6184924;23;20005;-80
2023/01/27 02:50:31;;;;;;;22.63;12.13;;;;;;;;;;6185414;23;20087;-81
2023/01/27 02:52:56;;;;;;;21.75;11.07;;;;;;;;;;6183156;23;20001;-80
2023/01/27 02:55:22;;;;;;;19.67;11.30;;;;;;;;;;6183497;23;20075;-80
2023/01/27 02:57:47;;;;;;;18.98;11.00;;;;;;;;;;6184686;23;20008;-80
2023/01/27 03:00:13;;;;;;;16.50;10.48;;;;;;;;;;6133916;23;20019;-81
2023/01/27 03:02:38;;;;;;;18.38;10.20;;;;;;;;;;6158840;23;20417;-80
2023/01/27 03:05:04;;;;;;;18.80;10.20;;;;;;;;;;6183492;23;20421;-81
2023/01/27 03:07:29;;;;;;;17.42;10.35;;;;;;;;;;6183037;23;20597;-80
2023/01/27 03:09:55;;;;;;;16.45;10.35;;;;;;;;;;6186312;23;20028;-81
2023/01/27 03:12:20;;;;;;;19.05;10.30;;;;;;;;;;6176800;23;20432;-81
2023/01/27 03:20:16;;;;;;;16.88;9.70;;;;;;;;;;6183623;23;20016;-81
2023/01/27 03:22:42;;;;;;;18.58;10.73;;;;;;;;;;6185380;23;20001;-80
2023/01/27 03:25:08;;;;;;;21.58;11.95;;;;;;;;;;6182488;23;20009;-81
2023/01/27 03:27:33;;;;;;;19.50;11.25;;;;;;;;;;6157853;23;20023;-81
2023/01/27 03:29:59;;;;;;;20.23;12.05;;;;;;;;;;6184597;23;20047;-80
2023/01/27 03:32:26;;;;;;;16.30;11.00;;;;;;;;;;6183816;23;20424;-80
2023/01/27 03:34:52;;;;;;;18.02;10.43;;;;;;;;;;6183749;23;20429;-79
2023/01/27 03:48:17;;;;;;;14.98;8.82;;;;;;;;;;6183839;23;20433;-81
2023/01/27 03:50:42;;;;;;;20.35;11.77;;;;;;;;;;6181978;23;20005;-79
2023/01/27 03:53:09;;;;;;;16.83;10.88;;;;;;;;;;6184119;23;20008;-80
2023/01/27 03:55:35;;;;;;;19.23;11.85;;;;;;;;;;6158010;23;20001;-79
2023/01/27 03:58:18;;;;;;;15.75;10.05;;;;;;;;;;6183858;23;20013;-80
2023/01/27 04:00:44;;;;;;;17.33;10.90;;;;;;;;;;6161897;23;20005;-79
2023/01/27 04:08:40;;;;;;;15.63;10.18;;;;;;;;;;6183922;23;20016;-81
2023/01/27 04:13:50;;;;;;;16.30;10.95;;;;;;;;;;6176983;23;20392;-79
2023/01/27 04:16:16;;;;;;;17.70;11.75;;;;;;;;;;6183461;23;20001;-80
2023/01/27 04:18:45;;;;;;;20.27;12.88;;;;;;;;;;6182179;23;20012;-79
2023/01/27 04:21:12;;;;;;;15.30;10.05;;;;;;;;;;6181886;23;20005;-80
2023/01/27 04:23:37;;;;;;;18.33;11.30;;;;;;;;;;6182209;23;20417;-80
2023/01/27 04:26:03;;;;;;;20.20;12.57;;;;;;;;;;6183747;23;20043;-80
2023/01/27 04:28:29;;;;;;;18.48;12.60;;;;;;;;;;6183656;23;20012;-80
2023/01/27 04:30:54;;;;;;;19.23;11.40;;;;;;;;;;6184051;23;20012;-80
2023/01/27 04:33:20;;;;;;;19.45;11.85;;;;;;;;;;6182402;23;20005;-80
2023/01/27 04:35:45;;;;;;;19.05;12.20;;;;;;;;;;6183988;23;20084;-79
2023/01/27 04:38:11;;;;;;;17.80;10.82;;;;;;;;;;6184147;23;20007;-79
2023/01/27 04:40:37;;;;;;;17.73;10.82;;;;;;;;;;6158040;23;20001;-80
2023/01/27 04:43:02;;;;;;;18.20;11.38;;;;;;;;;;6182735;23;20005;-79
2023/01/27 04:45:28;;;;;;;25.40;12.48;;;;;;;;;;6157657;23;20001;-80
2023/01/27 04:47:53;;;;;;;20.25;11.48;;;;;;;;;;6184169;23;20417;-79
2023/01/27 04:50:18;;;;;;;19.50;11.55;;;;;;;;;;6157367;23;20433;-79
2023/01/27 04:52:44;;;;;;;20.35;11.63;;;;;;;;;;6182364;23;20498;-79
2023/01/27 04:55:10;;;;;;;20.70;11.93;;;;;;;;;;6182690;23;20417;-79
2023/01/27 04:57:35;;;;;;;29.83;14.07;;;;;;;;;;6157662;23;20048;-79
2023/01/27 05:00:05;;;;;;;29.33;15.32;;;;;;;;;;6183694;23;20001;-79
2023/01/27 05:02:30;;;;;;;32.78;17.45;;;;;;;;;;6183237;23;20005;-78
2023/01/27 05:04:56;;;;;;;32.47;16.15;;;;;;;;;;6157520;23;20055;-79
2023/01/27 05:07:22;;;;;;;41.22;18.42;;;;;;;;;;6182416;23;20005;-79
2023/01/27 05:09:47;;;;;;;40.72;19.00;;;;;;;;;;6182271;23;20035;-78
2023/01/27 05:12:13;;;;;;;44.55;18.58;;;;;;;;;;6184113;23;20413;-78
2023/01/27 05:14:38;;;;;;;35.47;16.20;;;;;;;;;;6183969;23;20510;-78
2023/01/27 05:17:04;;;;;;;42.85;20.92;;;;;;;;;;6176829;23;20005;-80
2023/01/27 05:19:29;;;;;;;44.45;21.85;;;;;;;;;;6181918;23;20099;-80
2023/01/27 05:21:55;;;;;;;44.75;20.23;;;;;;;;;;6183600;23;20009;-79
2023/01/27 05:24:20;;;;;;;50.03;22.05;;;;;;;;;;6182349;23;19998;-79
2023/01/27 05:26:45;;;;;;;53.08;24.65;;;;;;;;;;6183250;23;20074;-80
2023/01/27 05:29:11;;;;;;;47.25;22.83;;;;;;;;;;6181740;23;20077;-78
2023/01/27 05:31:36;;;;;;;56.08;25.25;;;;;;;;;;6157358;23;20009;-80
2023/01/27 05:34:02;;;;;;;52.53;23.05;;;;;;;;;;6181334;23;20005;-80
2023/01/27 05:36:27;;;;;;;50.20;22.15;;;;;;;;;;6182018;23;20001;-78
2023/01/27 05:38:53;;;;;;;40.75;18.63;;;;;;;;;;6184495;23;20437;-79
2023/01/27 05:41:19;;;;;;;32.25;15.82;;;;;;;;;;6185748;23;20001;-78
2023/01/27 05:43:45;;;;;;;31.10;15.25;;;;;;;;;;6185645;23;20009;-79
2023/01/27 05:46:12;;;;;;;37.88;17.45;;;;;;;;;;6183276;23;20067;-80
2023/01/27 05:48:43;;;;;;;41.45;18.48;;;;;;;;;;6184187;23;20096;-80
2023/01/27 05:51:08;;;;;;;;;;;;;;;;;;6155575;23;20009;-79
2023/01/27 05:53:36;;;;;;;37.03;16.05;;;;;;;;;;6179605;23;20331;-79
2023/01/27 05:56:02;;;;;;;30.85;16.13;;;;;;;;;;6178904;23;20009;-76
2023/01/27 05:58:27;;;;;;;30.95;15.55;;;;;;;;;;6180269;23;20345;-78
2023/01/27 06:00:53;;;;;;;40.03;16.83;;;;;;;;;;6180112;23;20075;-78
2023/01/27 06:03:20;;;;;;;46.78;19.52;;;;;;;;;;6153691;23;20039;-79
2023/01/27 06:06:05;;;;;;;45.97;20.85;;;;;;;;;;6181120;23;20009;-79
2023/01/27 06:08:31;;;;;;;59.08;26.55;;;;;;;;;;6181530;23;20001;-79
2023/01/27 06:10:57;;;;;;;74.90;32.58;;;;;;;;;;6178568;23;20003;-79
2023/01/27 06:13:22;;;;;;;78.53;35.72;;;;;;;;;;6155148;23;19997;-80
2023/01/27 06:15:49;;;;;;;80.80;35.55;;;;;;;;;;6178389;23;20071;-79
2023/01/27 06:18:15;;;;;;;80.03;38.22;;;;;;;;;;6176124;23;20028;-79
2023/01/27 06:20:41;;;;;;;72.63;34.88;;;;;;;;;;6178336;23;20069;-79
2023/01/27 06:23:09;;;;;;;71.15;33.42;;;;;;;;;;6180217;23;20005;-79
2023/01/27 06:25:38;;;;;;;63.50;31.77;;;;;;;;;;6153007;23;20119;-78
2023/01/27 06:28:04;;;;;;;55.85;29.33;;;;;;;;;;6177657;23;20364;-80
2023/01/27 06:30:29;;;;;;;49.90;24.30;;;;;;;;;;6153492;23;20020;-79
2023/01/27 06:32:55;;;;;;;38.00;20.13;;;;;;;;;;6179442;23;20508;-79
2023/01/27 06:35:21;;;;;;;41.20;20.60;;;;;;;;;;6155241;23;20460;-80
2023/01/27 06:38:14;;;;;;;65.55;29.83;;;;;;;;;;6183860;23;20001;-80
2023/01/27 06:40:44;;;;;;;57.05;29.75;;;;;;;;;;6185689;23;20024;-80
2023/01/27 06:43:13;;;;;;;47.58;23.83;;;;;;;;;;6184306;23;20005;-81
2023/01/27 06:45:51;;;;;;;47.88;26.10;;;;;;;;;;6178765;23;20072;-81
2023/01/27 06:48:19;;;;;;;50.67;25.90;;;;;;;;;;6183929;23;20033;-79
2023/01/27 06:50:45;;;;;;;49.38;24.95;;;;;;;;;;6186971;23;20088;-79
2023/01/27 06:53:10;;;;;;;54.63;28.25;;;;;;;;;;6184156;23;20322;-82
2023/01/27 06:55:40;;;;;;;61.70;26.25;;;;;;;;;;6181744;23;20001;-79
2023/01/27 06:58:07;;;;;;;65.93;26.43;;;;;;;;;;6178631;23;20036;-79
2023/01/27 07:00:35;;;;;;;53.30;23.60;;;;;;;;;;6181269;23;20005;-81
2023/01/27 07:03:00;;;;;;;40.83;19.50;;;;;;;;;;6182557;23;20001;-78
2023/01/27 07:05:26;;;;;;;47.47;22.02;;;;;;;;;;6181657;23;20043;-80
2023/01/27 07:07:51;;;;;;;50.50;24.33;;;;;;;;;;6182944;23;20021;-79
2023/01/27 07:10:17;;;;;;;53.33;26.27;;;;;;;;;;6185270;23;20016;-77
2023/01/27 07:12:42;;;;;;;53.03;26.08;;;;;;;;;;6183476;23;20029;-78
2023/01/27 07:15:10;;;;;;;38.22;19.55;;;;;;;;;;6157261;23;20373;-77
2023/01/27 07:17:36;;;;;;;35.55;18.95;;;;;;;;;;6183058;23;20009;-78
2023/01/27 07:20:05;;;;;;;39.53;20.70;;;;;;;;;;6179938;23;20025;-79
2023/01/27 07:22:34;;;;;;;35.70;18.52;;;;;;;;;;6181782;23;20001;-79
2023/01/27 07:25:05;;;;;;;34.05;19.27;;;;;;;;;;6182146;23;20001;-79
2023/01/27 07:27:30;;;;;;;;;;;;;;;;;;6133283;23;20092;-80
2023/01/27 07:29:56;;;;;;;34.28;17.65;;;;;;;;;;6156051;23;19915;-78
2023/01/27 07:32:21;;;;;;;32.47;17.48;;;;;;;;;;6156728;23;20348;-79
2023/01/27 07:34:47;;;;;;;29.85;16.10;;;;;;;;;;6184783;23;20432;-80
2023/01/27 07:37:12;;;;;;;33.97;18.60;;;;;;;;;;6183589;23;20044;-80
2023/01/27 07:39:38;;;;;;;38.10;19.92;;;;;;;;;;6182894;23;20016;-80
2023/01/27 07:42:04;;;;;;;48.47;23.10;;;;;;;;;;6181963;23;20001;-81
2023/01/27 07:44:30;;;;;;;37.83;18.30;;;;;;;;;;6132022;23;20657;-81
2023/01/27 07:46:57;;;;;;;32.58;16.27;;;;;;;;;;6184570;23;20005;-80
2023/01/27 07:49:22;;;;;;;34.85;18.10;;;;;;;;;;6179033;23;20015;-80
2023/01/27 07:51:48;;;;;;;33.47;18.13;;;;;;;;;;6182753;23;20088;-79
2023/01/27 07:54:13;;;;;;;36.55;18.90;;;;;;;;;;6181006;23;20056;-80
2023/01/27 07:56:39;;;;;;;38.85;19.48;;;;;;;;;;6181773;23;20060;-80
2023/01/27 07:59:04;;;;;;;36.08;20.25;;;;;;;;;;6181750;23;20067;-79
2023/01/27 08:01:35;;;;;;;47.58;24.20;;;;;;;;;;6179212;23;20009;-81
2023/01/27 08:04:09;;;;;;;42.47;21.33;;;;;;;;;;6154544;23;20005;-78
2023/01/27 08:06:38;;;;;;;51.38;24.25;;;;;;;;;;6181892;23;20084;-80
2023/01/27 08:09:03;;;;;;;38.95;18.25;;;;;;;;;;6182313;23;20015;-80
2023/01/27 08:11:29;;;;;;;38.47;19.55;;;;;;;;;;6181731;23;20032;-81
2023/01/27 08:14:00;;;;;;;33.15;17.67;;;;;;;;;;6181541;23;19997;-80
2023/01/27 08:16:25;;;;;;;34.30;20.15;;;;;;;;;;6180568;23;20131;-80
2023/01/27 08:18:52;;;;;;;39.63;20.63;;;;;;;;;;6181609;23;20092;-79
2023/01/27 08:21:18;;;;;;;40.30;21.08;;;;;;;;;;6182423;23;20071;-79
2023/01/27 08:23:44;;;;;;;50.25;25.52;;;;;;;;;;6182963;23;20580;-80
2023/01/27 08:26:09;;;;;;;56.22;28.20;;;;;;;;;;6157931;23;20001;-79
2023/01/27 08:28:36;;;;;;;49.97;24.20;;;;;;;;;;6181332;23;20016;-79
2023/01/27 08:31:14;;;;;;;43.70;23.52;;;;;;;;;;6183202;23;20009;-80
2023/01/27 08:33:40;;;;;;;59.67;26.88;;;;;;;;;;6182400;23;20005;-80
2023/01/27 08:36:15;;;;;;;60.97;29.45;;;;;;;;;;6155333;23;20051;-78
2023/01/27 08:38:41;;;;;;;60.80;28.55;;;;;;;;;;6182212;23;20542;-78
2023/01/27 08:41:12;;;;;;;70.68;28.90;;;;;;;;;;6176479;23;20000;-80
2023/01/27 08:43:38;;;;;;;66.32;28.30;;;;;;;;;;6177893;23;20088;-80
2023/01/27 08:46:05;;;;;;;75.25;31.63;;;;;;;;;;6178578;23;20025;-80
2023/01/27 08:48:31;;;;;;;55.92;26.25;;;;;;;;;;6153625;23;20269;-78
2023/01/27 08:50:56;;;;;;;73.20;30.50;;;;;;;;;;6175270;23;20092;-79
2023/01/27 08:53:23;;;;;;;84.68;32.60;;;;;;;;;;6177855;23;20009;-79
2023/01/27 08:55:49;;;;;;;74.13;29.30;;;;;;;;;;6182379;23;20005;-80
2023/01/27 08:58:14;;;;;;;76.05;31.45;;;;;;;;;;6178463;23;20012;-79
2023/01/27 09:00:40;;;;;;;106.93;39.70;;;;;;;;;;6178904;23;20060;-79
2023/01/27 09:03:05;;;;;;;97.03;37.28;;;;;;;;;;6178909;23;20096;-79
2023/01/27 09:05:31;;;;;;;97.40;39.05;;;;;;;;;;6128647;23;20005;-80
2023/01/27 09:07:56;;;;;;;85.80;35.72;;;;;;;;;;6179387;23;20005;-78
2023/01/27 09:10:22;;;;;;;97.05;39.25;;;;;;;;;;6178972;23;20005;-80
2023/01/27 09:12:47;;;;;;;91.18;35.17;;;;;;;;;;6183280;23;20005;-80
2023/01/27 09:15:13;;;;;;;92.05;37.00;;;;;;;;;;6183343;23;20001;-80
2023/01/27 09:17:48;;;;;;;105.70;43.03;;;;;;;;;;6184364;23;20005;-82
2023/01/27 09:20:13;;;;;;;91.57;41.25;;;;;;;;;;6183102;23;20104;-80
2023/01/27 09:22:39;;;;;;;97.30;39.35;;;;;;;;;;6182883;23;20011;-81
2023/01/27 09:25:06;;;;;;;76.80;34.58;;;;;;;;;;6157767;23;20421;-80
2023/01/27 09:27:32;;;;;;;255.93;111.85;;;;;;;;;;6179462;23;20063;-81
2023/01/27 09:30:04;;;;;;;141.52;63.47;;;;;;;;;;6183092;23;20424;-81
2023/01/27 09:32:29;;;;;;;113.72;48.60;;;;;;;;;;6179453;23;20424;-81
2023/01/27 09:34:55;;;;;;;109.25;49.47;;;;;;;;;;6182114;23;20008;-80
2023/01/27 09:37:20;;;;;;;96.72;42.67;;;;;;;;;;6182231;23;20025;-81
2023/01/27 09:39:49;;;;;;;92.35;39.60;;;;;;;;;;6184473;23;20001;-81
2023/01/27 09:42:22;;;;;;;87.70;39.83;;;;;;;;;;6163799;23;20009;-80
2023/01/27 09:44:55;;;;;;;73.68;31.98;;;;;;;;;;6184642;23;20001;-81
2023/01/27 09:47:30;;;;;;;75.00;33.83;;;;;;;;;;6137480;23;20032;-81
2023/01/27 09:50:19;;;;;;;72.18;33.50;;;;;;;;;;6191638;23;20017;-80
2023/01/27 09:53:03;;;;;;;85.45;36.47;;;;;;;;;;6177869;23;20043;-81
2023/01/27 09:55:50;;;;;;;78.82;36.47;;;;;;;;;;6185123;23;20007;-80
2023/01/27 09:58:54;;;;;;;48.10;24.40;;;;;;;;;;6185688;23;20052;-79
2023/01/27 10:01:44;;;;;;;62.63;28.00;;;;;;;;;;6181523;23;20001;-81
2023/01/27 10:04:40;;;;;;;87.63;34.65;;;;;;;;;;6180217;23;20001;-80
2023/01/27 10:07:25;;;;;;;104.63;42.45;;;;;;;;;;6180013;23;20001;-81
2023/01/27 10:10:08;;;;;;;82.05;34.63;;;;;;;;;;6178859;23;20048;-80
2023/01/27 10:13:24;;;;;;;290.17;122.63;;;;;;;;;;6182181;23;20045;-79
2023/01/27 10:16:22;;;;;;;119.22;47.92;;;;;;;;;;6093464;23;20082;-81
2023/01/27 10:19:04;;;;;;;83.22;35.88;;;;;;;;;;6184594;23;20033;-81
2023/01/27 10:21:29;;;;;;;55.22;26.67;;;;;;;;;;6183421;23;20451;-80
2023/01/27 10:24:07;;;;;;;58.30;26.30;;;;;;;;;;6183257;23;20001;-79
2023/01/27 10:26:35;;;;;;;62.10;29.20;;;;;;;;;;6182354;23;20590;-80
2023/01/27 10:29:17;;;;;;;62.55;25.02;;;;;;;;;;6182247;23;20444;-81
2023/01/27 10:31:49;;;;;;;48.72;21.73;;;;;;;;;;6182954;23;20076;-81
2023/01/27 10:34:43;;;;;;;41.65;19.27;;;;;;;;;;6183494;23;20008;-81
2023/01/27 10:37:36;;;;;;;37.97;19.70;;;;;;;;;;6152998;23;20028;-79
2023/01/27 10:40:07;;;;;;;45.30;21.10;;;;;;;;;;6187309;23;20001;-82
2023/01/27 10:42:36;;;;;;;36.05;20.23;;;;;;;;;;6186159;23;20025;-82
2023/01/27 10:45:34;;;;;;;38.95;19.75;;;;;;;;;;6186493;23;20001;-80
2023/01/27 10:48:18;;;;;;;45.80;23.15;;;;;;;;;;6187861;23;20005;-79
2023/01/27 10:51:09;;;;;;;35.67;19.00;;;;;;;;;;6186242;23;20072;-82
2023/01/27 10:53:39;;;;;;;32.72;19.10;;;;;;;;;;6185905;23;20001;-82
2023/01/27 10:56:15;;;;;;;;;;;;;;;;;;6177874;23;20438;-80
2023/01/27 10:59:11;;;;;;;30.27;16.95;;;;;;;;;;6182604;23;20339;-81
2023/01/27 11:01:43;;;;;;;33.35;17.17;;;;;;;;;;6181271;23;20000;-80
2023/01/27 11:04:30;;;;;;;35.92;19.27;;;;;;;;;;6156495;23;20084;-81
2023/01/27 11:06:55;;;;;;;48.25;25.10;;;;;;;;;;6180198;23;20003;-81
2023/01/27 11:09:24;;;;;;;43.60;22.48;;;;;;;;;;6156251;23;20040;-80
2023/01/27 11:11:50;;;;;;;38.45;20.60;;;;;;;;;;6182643;23;20455;-82
2023/01/27 11:14:17;;;;;;;39.97;22.05;;;;;;;;;;6183205;23;20008;-81
2023/01/27 11:16:48;;;;;;;33.47;18.48;;;;;;;;;;6185484;23;20005;-81
2023/01/27 11:19:28;;;;;;;36.63;21.77;;;;;;;;;;6183693;23;20424;-81
2023/01/27 11:21:53;;;;;;;39.30;21.50;;;;;;;;;;6184006;23;20048;-82
2023/01/27 11:24:35;;;;;;;43.47;23.63;;;;;;;;;;6185723;23;20336;-80
2023/01/27 11:27:38;;;;;;;55.90;26.95;;;;;;;;;;6187762;23;20001;-81
2023/01/27 11:30:20;;;;;;;40.40;19.95;;;;;;;;;;6185119;23;20013;-82
2023/01/27 11:33:02;;;;;;;45.42;20.40;;;;;;;;;;6160760;23;20005;-81
2023/01/27 11:35:27;;;;;;;41.33;21.20;;;;;;;;;;6184796;23;20436;-79
2023/01/27 11:37:53;;;;;;;41.75;21.42;;;;;;;;;;6183800;23;20008;-80
2023/01/27 11:40:29;;;;;;;41.15;20.60;;;;;;;;;;6183846;23;20423;-82
2023/01/27 11:42:57;;;;;;;35.50;19.50;;;;;;;;;;6182332;23;20359;-81
2023/01/27 11:45:22;;;;;;;32.00;18.23;;;;;;;;;;6161605;23;20616;-84
2023/01/27 11:47:50;;;;;;;36.28;18.83;;;;;;;;;;6189004;23;20036;-84
2023/01/27 11:50:16;;;;;;;39.17;20.70;;;;;;;;;;6171715;23;20013;-83
2023/01/27 11:52:44;;;;;;;48.47;26.15;;;;;;;;;;6204997;23;20035;-84
2023/01/27 11:55:12;;;;;;;38.03;21.00;;;;;;;;;;6181466;23;19985;-85
2023/01/27 11:57:40;;;;;;;31.95;18.20;;;;;;;;;;6201835;23;20016;-84
2023/01/27 12:00:15;;;;;;;26.55;16.90;;;;;;;;;;6179645;23;20005;-82
2023/01/27 12:02:43;;;;;;;30.92;17.85;;;;;;;;;;6161963;23;20001;-83
2023/01/27 12:05:13;;;;;;;30.90;17.50;;;;;;;;;;6184685;23;20001;-84
2023/01/27 12:07:41;;;;;;;33.85;17.02;;;;;;;;;;6187795;23;20001;-83
2023/01/27 12:10:26;;;;;;;35.20;19.27;;;;;;;;;;6190060;23;20012;-82
2023/01/27 12:12:52;;;;;;;31.08;18.05;;;;;;;;;;6197596;23;20005;-82
2023/01/27 12:15:17;;;;;;;29.40;17.45;;;;;;;;;;6151787;23;20012;-83
2023/01/27 12:17:49;;;;;;;34.28;19.38;;;;;;;;;;6172059;23;20457;-83
2023/01/27 12:20:31;;;;;;;49.28;24.88;;;;;;;;;;6199206;23;20051;-83
2023/01/27 12:22:59;;;;;;;32.35;18.20;;;;;;;;;;6188535;23;20071;-82
2023/01/27 12:25:28;;;;;;;35.15;16.70;;;;;;;;;;6183103;23;20785;-81
2023/01/27 12:28:00;;;;;;;30.08;16.20;;;;;;;;;;6178836;23;20083;-83
2023/01/27 12:30:27;;;;;;;29.48;16.48;;;;;;;;;;6178903;23;20013;-83
2023/01/27 12:32:53;;;;;;;36.38;19.27;;;;;;;;;;6189293;23;20005;-85
2023/01/27 12:35:23;;;;;;;38.42;19.05;;;;;;;;;;6181816;23;20339;-86
2023/01/27 12:37:49;;;;;;;45.08;21.95;;;;;;;;;;6183179;23;20032;-85
2023/01/27 12:40:19;;;;;;;59.92;25.77;;;;;;;;;;6180354;23;19997;-85
2023/01/27 12:42:50;;;;;;;75.03;31.08;;;;;;;;;;6180775;23;20005;-85
2023/01/27 12:45:25;;;;;;;71.05;30.63;;;;;;;;;;6132635;23;20001;-85
2023/01/27 12:47:58;;;;;;;61.47;26.58;;;;;;;;;;6183296;23;20001;-85
2023/01/27 12:50:29;;;;;;;64.20;26.83;;;;;;;;;;6184040;23;20012;-85
2023/01/27 12:53:07;;;;;;;65.05;25.35;;;;;;;;;;6183117;23;20475;-85
2023/01/27 12:55:35;;;;;;;69.03;28.08;;;;;;;;;;6160350;23;20083;-84
2023/01/27 12:58:01;;;;;;;64.10;26.45;;;;;;;;;;6185896;23;20001;-85
2023/01/27 13:00:26;;;;;;;50.65;22.80;;;;;;;;;;6153890;23;20493;-84
2023/01/27 13:02:53;;;;;;;41.33;20.02;;;;;;;;;;6186479;23;20068;-84
2023/01/27 13:05:20;;;;;;;52.55;27.15;;;;;;;;;;6162544;23;20036;-85
2023/01/27 13:07:50;;;;;;;56.70;30.65;;;;;;;;;;6186318;23;20005;-85
2023/01/27 13:10:19;;;;;;;;;;;;;;;;;;6163433;23;20001;-85
2023/01/27 13:12:49;;;;;;;53.65;26.30;;;;;;;;;;6188797;23;19954;-85
2023/01/27 13:15:15;;;;;;;;;;;;;;;;;;6162988;23;20033;-85
2023/01/27 13:17:48;;;;;;;36.40;19.50;;;;;;;;;;6188805;23;19908;-84
2023/01/27 13:20:26;;;;;;;43.90;22.15;;;;;;;;;;6139803;23;20013;-85
2023/01/27 13:23:17;;;;;;;45.17;22.90;;;;;;;;;;6190764;23;20021;-86
2023/01/27 13:26:06;;;;;;;40.13;21.42;;;;;;;;;;6194968;23;20028;-84
2023/01/27 13:28:52;;;;;;;35.60;19.40;;;;;;;;;;6200192;23;20471;-85
2023/01/27 13:31:32;;;;;;;35.13;20.58;;;;;;;;;;6197147;23;20009;-85
2023/01/27 13:34:04;;;;;;;35.70;19.85;;;;;;;;;;6197536;23;19997;-85
2023/01/27 13:36:35;;;;;;;44.90;22.30;;;;;;;;;;6173469;23;20416;-84
2023/01/27 13:39:27;;;;;;;42.88;20.83;;;;;;;;;;6181730;23;20043;-85
2023/01/27 13:42:10;;;;;;;41.58;21.92;;;;;;;;;;6209987;23;20005;-85
2023/01/27 13:44:40;;;;;;;50.72;25.98;;;;;;;;;;6208287;23;20007;-84
2023/01/27 13:47:39;;;;;;;53.53;26.25;;;;;;;;;;6200179;23;20005;-85
2023/01/27 13:50:19;;;;;;;58.53;27.52;;;;;;;;;;6162744;23;20035;-85
2023/01/27 13:52:45;;;;;;;54.53;27.80;;;;;;;;;;6135541;23;20399;-85
2023/01/27 13:55:11;;;;;;;53.28;28.63;;;;;;;;;;6159945;23;20001;-85
2023/01/27 13:57:46;;;;;;;58.60;29.13;;;;;;;;;;6190511;23;20337;-85
2023/01/27 14:00:38;;;;;;;51.65;28.38;;;;;;;;;;6204445;23;20005;-85
2023/01/27 14:03:28;;;;;;;51.53;26.00;;;;;;;;;;6156290;23;20008;-86
2023/01/27 14:06:01;;;;;;;;;;;;;;;;;;6185204;23;20408;-85
2023/01/27 14:08:44;;;;;;;80.93;35.55;;;;;;;;;;6184299;23;19934;-84
2023/01/27 14:11:21;;;;;;;59.15;28.65;;;;;;;;;;6183685;23;20373;-85
2023/01/27 14:14:44;;;;;;;58.67;32.53;;;;;;;;;;6183066;23;20009;-85
2023/01/27 14:17:29;;;;;;;154.50;76.72;;;;;;;;;;6093541;23;20007;-85
2023/01/27 14:20:17;;;;;;;102.68;57.17;;;;;;;;;;6069955;23;20010;-85
2023/01/27 14:22:58;;;;;;;96.68;54.55;;;;;;;;;;6162041;23;20009;-85
2023/01/27 14:25:35;;;;;;;72.10;41.70;;;;;;;;;;6184019;23;20005;-85
2023/01/27 14:28:08;;;;;;;49.70;28.02;;;;;;;;;;6184513;23;20001;-83
2023/01/27 14:30:43;;;;;;;50.20;26.80;;;;;;;;;;6159318;23;20045;-85
2023/01/27 14:33:34;;;;;;;57.78;29.30;;;;;;;;;;6183478;23;20012;-85
2023/01/27 14:36:20;;;;;;;48.20;26.70;;;;;;;;;;6185098;23;20088;-85
2023/01/27 14:39:07;;;;;;;54.25;30.58;;;;;;;;;;6183200;23;20001;-85
2023/01/27 14:41:46;;;;;;;50.72;28.60;;;;;;;;;;6183895;23;20016;-84
2023/01/27 14:44:30;;;;;;;56.63;32.42;;;;;;;;;;6140759;23;20011;-84
2023/01/27 14:47:06;;;;;;;53.45;28.00;;;;;;;;;;6188029;23;20005;-85
2023/01/27 14:49:53;;;;;;;54.85;27.92;;;;;;;;;;6159632;23;20012;-85
2023/01/27 14:52:30;;;;;;;49.35;26.48;;;;;;;;;;6161099;23;20005;-85
2023/01/27 14:55:11;;;;;;;67.85;34.20;;;;;;;;;;6184501;23;20005;-84
2023/01/27 14:57:55;;;;;;;148.85;65.63;;;;;;;;;;6184161;23;20354;-84
2023/01/27 15:00:45;;;;;;;107.60;54.97;;;;;;;;;;6184404;23;20013;-85
2023/01/27 15:03:17;;;;;;;111.32;62.58;;;;;;;;;;6185545;23;20001;-86
2023/01/27 15:05:54;;;;;;;99.30;55.55;;;;;;;;;;6178715;23;20105;-84
2023/01/27 15:08:29;;;;;;;98.22;51.63;;;;;;;;;;6158043;23;20436;-84
2023/01/27 15:11:44;;;;;;;70.97;38.00;;;;;;;;;;6182286;23;20032;-85
2023/01/27 15:14:34;;;;;;;64.05;34.00;;;;;;;;;;6148719;23;20008;-84